sensor_id;sensor_type;location;lat;lon;timestamp;temperature;humidity
41756;DHT22;27435;48.480;9.258;2022-11-02T00:00:48;8.70;99.00
41756;DHT22;27435;48.480;9.258;2022-11-02T00:03:14;8.80;99.00
41756;DHT22;27435;48.480;9.258;2022-11-02T00:05:40;8.90;99.00
41756;DHT22;27435;48.480;9.258;2022-11-02T00:08:05;9.10;99.00
41756;DHT22;27435;48.480;9.258;2022-11-02T00:10:31;9.20;99.00
41756;DHT22;27435;48.480;9.258;2022-11-02T00:12:57;9.00;99.00
41756;DHT22;27435;48.480;9.258;2022-11-02T00:15:28;8.90;99.00
41756;DHT22;27435;48.480;9.258;2022-11-02T00:18:00;8.90;99.00
41756;DHT22;27435;48.480;9.258;2022-11-02T00:20:26;8.90;99.00
41756;DHT22;27435;48.480;9.258;2022-11-02T00:22:57;8.80;99.00
41756;DHT22;27435;48.480;9.258;2022-11-02T00:25:25;8.80;99.00
41756;DHT22;27435;48.480;9.258;2022-11-02T00:27:51;8.70;99.00
41756;DHT22;27435;48.480;9.258;2022-11-02T00:30:17;8.70;99.00
41756;DHT22;27435;48.480;9.258;2022-11-02T00:32:43;8.60;99.00
41756;DHT22;27435;48.480;9.258;2022-11-02T00:35:08;8.60;99.00
41756;DHT22;27435;48.480;9.258;2022-11-02T00:37:35;8.60;99.00
41756;DHT22;27435;48.480;9.258;2022-11-02T00:40:01;8.40;99.00
41756;DHT22;27435;48.480;9.258;2022-11-02T00:42:26;8.20;99.00
41756;DHT22;27435;48.480;9.258;2022-11-02T00:44:52;8.20;99.00
41756;DHT22;27435;48.480;9.258;2022-11-02T00:47:18;8.20;99.00
41756;DHT22;27435;48.480;9.258;2022-11-02T00:49:44;8.20;99.00
41756;DHT22;27435;48.480;9.258;2022-11-02T00:52:09;8.20;99.00
41756;DHT22;27435;48.480;9.258;2022-11-02T00:54:35;8.40;99.00
41756;DHT22;27435;48.480;9.258;2022-11-02T00:57:00;8.40;99.00
41756;DHT22;27435;48.480;9.258;2022-11-02T00:59:26;8.50;99.00
41756;DHT22;27435;48.480;9.258;2022-11-02T01:01:52;8.70;99.00
41756;DHT22;27435;48.480;9.258;2022-11-02T01:04:17;8.70;99.00
41756;DHT22;27435;48.480;9.258;2022-11-02T01:06:44;8.80;99.00
41756;DHT22;27435;48.480;9.258;2022-11-02T01:09:10;8.90;99.00
41756;DHT22;27435;48.480;9.258;2022-11-02T01:11:38;9.00;99.00
41756;DHT22;27435;48.480;9.258;2022-11-02T01:14:04;9.10;99.00
41756;DHT22;27435;48.480;9.258;2022-11-02T01:16:29;9.20;99.00
41756;DHT22;27435;48.480;9.258;2022-11-02T01:18:58;9.30;99.00
41756;DHT22;27435;48.480;9.258;2022-11-02T01:21:24;9.50;99.00
41756;DHT22;27435;48.480;9.258;2022-11-02T01:23:50;9.60;99.00
41756;DHT22;27435;48.480;9.258;2022-11-02T01:26:16;9.70;99.00
41756;DHT22;27435;48.480;9.258;2022-11-02T01:28:42;9.80;99.00
41756;DHT22;27435;48.480;9.258;2022-11-02T01:31:09;9.90;99.00
41756;DHT22;27435;48.480;9.258;2022-11-02T01:33:34;10.10;99.00
41756;DHT22;27435;48.480;9.258;2022-11-02T01:36:03;10.10;99.00
41756;DHT22;27435;48.480;9.258;2022-11-02T01:38:29;10.10;99.00
41756;DHT22;27435;48.480;9.258;2022-11-02T01:40:56;10.30;99.00
41756;DHT22;27435;48.480;9.258;2022-11-02T01:43:28;10.30;99.00
41756;DHT22;27435;48.480;9.258;2022-11-02T01:46:16;10.40;99.00
41756;DHT22;27435;48.480;9.258;2022-11-02T01:48:51;10.50;99.00
41756;DHT22;27435;48.480;9.258;2022-11-02T01:51:26;10.50;99.00
41756;DHT22;27435;48.480;9.258;2022-11-02T01:53:56;10.50;99.00
41756;DHT22;27435;48.480;9.258;2022-11-02T01:56:24;10.60;99.00
41756;DHT22;27435;48.480;9.258;2022-11-02T01:58:57;10.60;99.00
41756;DHT22;27435;48.480;9.258;2022-11-02T02:01:23;10.50;99.00
41756;DHT22;27435;48.480;9.258;2022-11-02T02:03:51;10.60;99.00
41756;DHT22;27435;48.480;9.258;2022-11-02T02:06:16;10.60;99.00
41756;DHT22;27435;48.480;9.258;2022-11-02T02:08:45;10.40;99.00
41756;DHT22;27435;48.480;9.258;2022-11-02T02:13:52;10.20;99.00
41756;DHT22;27435;48.480;9.258;2022-11-02T02:18:59;10.10;99.00
41756;DHT22;27435;48.480;9.258;2022-11-02T02:24:50;9.90;99.00
41756;DHT22;27435;48.480;9.258;2022-11-02T02:27:26;9.80;99.00
41756;DHT22;27435;48.480;9.258;2022-11-02T02:30:08;9.70;99.00
41756;DHT22;27435;48.480;9.258;2022-11-02T02:38:02;9.90;99.00
41756;DHT22;27435;48.480;9.258;2022-11-02T02:40:34;10.00;99.00
41756;DHT22;27435;48.480;9.258;2022-11-02T02:43:08;10.00;99.00
41756;DHT22;27435;48.480;9.258;2022-11-02T02:45:38;10.00;99.00
41756;DHT22;27435;48.480;9.258;2022-11-02T02:48:13;10.00;99.00
41756;DHT22;27435;48.480;9.258;2022-11-02T02:50:49;10.00;99.00
41756;DHT22;27435;48.480;9.258;2022-11-02T02:53:22;10.10;99.00
41756;DHT22;27435;48.480;9.258;2022-11-02T02:55:49;10.20;99.00
41756;DHT22;27435;48.480;9.258;2022-11-02T02:58:25;10.20;99.00
41756;DHT22;27435;48.480;9.258;2022-11-02T03:00:52;10.20;99.00
41756;DHT22;27435;48.480;9.258;2022-11-02T03:03:24;10.20;99.00
41756;DHT22;27435;48.480;9.258;2022-11-02T03:06:15;10.30;99.00
41756;DHT22;27435;48.480;9.258;2022-11-02T03:08:59;10.30;99.00
41756;DHT22;27435;48.480;9.258;2022-11-02T03:11:27;10.30;99.00
41756;DHT22;27435;48.480;9.258;2022-11-02T03:14:02;10.30;99.00
41756;DHT22;27435;48.480;9.258;2022-11-02T03:17:00;10.20;99.00
41756;DHT22;27435;48.480;9.258;2022-11-02T03:25:16;10.00;99.00
41756;DHT22;27435;48.480;9.258;2022-11-02T03:28:17;10.20;99.00
41756;DHT22;27435;48.480;9.258;2022-11-02T03:30:56;10.30;99.00
41756;DHT22;27435;48.480;9.258;2022-11-02T03:33:32;10.30;99.00
41756;DHT22;27435;48.480;9.258;2022-11-02T03:36:17;10.30;99.00
41756;DHT22;27435;48.480;9.258;2022-11-02T03:38:57;10.30;99.00
41756;DHT22;27435;48.480;9.258;2022-11-02T03:41:24;10.20;99.00
41756;DHT22;27435;48.480;9.258;2022-11-02T03:43:57;10.10;99.00
41756;DHT22;27435;48.480;9.258;2022-11-02T03:46:25;10.00;99.00
41756;DHT22;27435;48.480;9.258;2022-11-02T03:48:52;10.00;99.00
41756;DHT22;27435;48.480;9.258;2022-11-02T03:51:21;10.00;99.00
41756;DHT22;27435;48.480;9.258;2022-11-02T03:54:01;10.00;99.00
41756;DHT22;27435;48.480;9.258;2022-11-02T03:56:40;10.00;99.00
41756;DHT22;27435;48.480;9.258;2022-11-02T03:59:07;10.10;99.00
41756;DHT22;27435;48.480;9.258;2022-11-02T04:01:43;10.00;99.00
41756;DHT22;27435;48.480;9.258;2022-11-02T04:04:10;10.10;99.00
41756;DHT22;27435;48.480;9.258;2022-11-02T04:06:36;10.00;99.00
41756;DHT22;27435;48.480;9.258;2022-11-02T04:09:02;10.00;99.00
41756;DHT22;27435;48.480;9.258;2022-11-02T04:11:30;10.10;99.00
41756;DHT22;27435;48.480;9.258;2022-11-02T04:14:14;10.20;99.00
41756;DHT22;27435;48.480;9.258;2022-11-02T04:16:59;10.10;99.00
41756;DHT22;27435;48.480;9.258;2022-11-02T04:19:43;10.20;99.00
41756;DHT22;27435;48.480;9.258;2022-11-02T04:22:09;10.20;99.00
41756;DHT22;27435;48.480;9.258;2022-11-02T04:24:53;10.20;99.00
41756;DHT22;27435;48.480;9.258;2022-11-02T04:27:37;10.10;99.00
41756;DHT22;27435;48.480;9.258;2022-11-02T04:30:03;10.10;99.00
41756;DHT22;27435;48.480;9.258;2022-11-02T04:32:29;10.10;99.00
41756;DHT22;27435;48.480;9.258;2022-11-02T04:35:19;10.10;99.00
41756;DHT22;27435;48.480;9.258;2022-11-02T04:37:45;10.00;99.00
41756;DHT22;27435;48.480;9.258;2022-11-02T04:40:30;10.10;99.00
41756;DHT22;27435;48.480;9.258;2022-11-02T04:42:55;10.00;99.00
41756;DHT22;27435;48.480;9.258;2022-11-02T04:45:21;10.00;99.00
41756;DHT22;27435;48.480;9.258;2022-11-02T04:47:47;9.90;99.00
41756;DHT22;27435;48.480;9.258;2022-11-02T04:50:12;9.90;99.00
41756;DHT22;27435;48.480;9.258;2022-11-02T04:52:38;9.90;99.00
41756;DHT22;27435;48.480;9.258;2022-11-02T04:55:04;9.80;99.00
41756;DHT22;27435;48.480;9.258;2022-11-02T04:57:30;9.80;99.00
41756;DHT22;27435;48.480;9.258;2022-11-02T04:59:55;9.80;99.00
41756;DHT22;27435;48.480;9.258;2022-11-02T05:02:21;9.70;99.00
41756;DHT22;27435;48.480;9.258;2022-11-02T05:04:46;9.60;99.00
41756;DHT22;27435;48.480;9.258;2022-11-02T05:07:12;9.60;99.00
41756;DHT22;27435;48.480;9.258;2022-11-02T05:09:38;9.60;99.00
41756;DHT22;27435;48.480;9.258;2022-11-02T05:12:06;9.60;99.00
41756;DHT22;27435;48.480;9.258;2022-11-02T05:14:32;9.60;99.00
41756;DHT22;27435;48.480;9.258;2022-11-02T05:16:58;9.50;99.00
41756;DHT22;27435;48.480;9.258;2022-11-02T05:19:23;9.50;99.00
41756;DHT22;27435;48.480;9.258;2022-11-02T05:21:49;9.50;99.00
41756;DHT22;27435;48.480;9.258;2022-11-02T05:24:15;9.50;99.00
41756;DHT22;27435;48.480;9.258;2022-11-02T05:26:40;9.40;99.00
41756;DHT22;27435;48.480;9.258;2022-11-02T05:29:06;9.40;99.00
41756;DHT22;27435;48.480;9.258;2022-11-02T05:31:32;9.40;99.00
41756;DHT22;27435;48.480;9.258;2022-11-02T05:33:58;9.40;99.00
41756;DHT22;27435;48.480;9.258;2022-11-02T05:36:24;9.30;99.00
41756;DHT22;27435;48.480;9.258;2022-11-02T05:38:53;9.20;99.00
41756;DHT22;27435;48.480;9.258;2022-11-02T05:41:19;9.20;99.00
41756;DHT22;27435;48.480;9.258;2022-11-02T05:43:45;9.20;99.00
41756;DHT22;27435;48.480;9.258;2022-11-02T05:46:10;9.10;99.00
41756;DHT22;27435;48.480;9.258;2022-11-02T05:48:39;9.00;99.00
41756;DHT22;27435;48.480;9.258;2022-11-02T05:51:05;8.90;99.00
41756;DHT22;27435;48.480;9.258;2022-11-02T05:53:31;8.90;99.00
41756;DHT22;27435;48.480;9.258;2022-11-02T05:55:59;8.90;99.00
41756;DHT22;27435;48.480;9.258;2022-11-02T05:58:25;8.80;99.00
41756;DHT22;27435;48.480;9.258;2022-11-02T06:00:51;8.80;99.00
41756;DHT22;27435;48.480;9.258;2022-11-02T06:03:17;8.70;99.00
41756;DHT22;27435;48.480;9.258;2022-11-02T06:05:43;8.80;99.00
41756;DHT22;27435;48.480;9.258;2022-11-02T06:08:09;8.90;99.00
41756;DHT22;27435;48.480;9.258;2022-11-02T06:10:34;9.00;99.00
41756;DHT22;27435;48.480;9.258;2022-11-02T06:13:01;8.90;99.00
41756;DHT22;27435;48.480;9.258;2022-11-02T06:15:29;8.80;99.00
41756;DHT22;27435;48.480;9.258;2022-11-02T06:17:55;8.90;99.00
41756;DHT22;27435;48.480;9.258;2022-11-02T06:20:21;8.90;99.00
41756;DHT22;27435;48.480;9.258;2022-11-02T06:22:48;8.80;99.00
41756;DHT22;27435;48.480;9.258;2022-11-02T06:25:14;8.90;99.00
41756;DHT22;27435;48.480;9.258;2022-11-02T06:27:40;8.70;99.00
41756;DHT22;27435;48.480;9.258;2022-11-02T06:30:07;8.70;99.00
41756;DHT22;27435;48.480;9.258;2022-11-02T06:32:33;8.80;99.00
41756;DHT22;27435;48.480;9.258;2022-11-02T06:34:59;9.00;99.00
41756;DHT22;27435;48.480;9.258;2022-11-02T06:37:24;9.20;99.00
41756;DHT22;27435;48.480;9.258;2022-11-02T06:39:50;9.30;99.00
41756;DHT22;27435;48.480;9.258;2022-11-02T06:42:15;9.40;99.00
41756;DHT22;27435;48.480;9.258;2022-11-02T06:44:41;9.30;99.00
41756;DHT22;27435;48.480;9.258;2022-11-02T06:47:06;9.40;99.00
41756;DHT22;27435;48.480;9.258;2022-11-02T06:49:32;9.50;99.00
41756;DHT22;27435;48.480;9.258;2022-11-02T06:51:57;9.70;99.00
41756;DHT22;27435;48.480;9.258;2022-11-02T06:54:23;9.90;99.00
41756;DHT22;27435;48.480;9.258;2022-11-02T06:56:49;10.20;99.00
41756;DHT22;27435;48.480;9.258;2022-11-02T06:59:14;10.50;99.00
41756;DHT22;27435;48.480;9.258;2022-11-02T07:01:40;10.80;99.00
41756;DHT22;27435;48.480;9.258;2022-11-02T07:04:05;10.90;99.00
41756;DHT22;27435;48.480;9.258;2022-11-02T07:06:31;11.10;99.00
41756;DHT22;27435;48.480;9.258;2022-11-02T07:08:57;11.30;99.00
41756;DHT22;27435;48.480;9.258;2022-11-02T07:11:23;11.50;99.00
41756;DHT22;27435;48.480;9.258;2022-11-02T07:13:48;11.60;99.00
41756;DHT22;27435;48.480;9.258;2022-11-02T07:16:14;11.70;98.30
41756;DHT22;27435;48.480;9.258;2022-11-02T07:18:40;11.80;98.40
41756;DHT22;27435;48.480;9.258;2022-11-02T07:21:06;11.80;97.60
41756;DHT22;27435;48.480;9.258;2022-11-02T07:23:32;11.90;97.30
41756;DHT22;27435;48.480;9.258;2022-11-02T07:26:00;12.00;97.30
41756;DHT22;27435;48.480;9.258;2022-11-02T07:28:26;12.10;97.10
41756;DHT22;27435;48.480;9.258;2022-11-02T07:30:53;12.20;96.90
41756;DHT22;27435;48.480;9.258;2022-11-02T07:33:19;12.40;95.80
41756;DHT22;27435;48.480;9.258;2022-11-02T07:35:45;12.50;96.00
41756;DHT22;27435;48.480;9.258;2022-11-02T07:38:12;12.40;95.60
41756;DHT22;27435;48.480;9.258;2022-11-02T07:40:38;12.40;95.70
41756;DHT22;27435;48.480;9.258;2022-11-02T07:43:04;12.50;96.10
41756;DHT22;27435;48.480;9.258;2022-11-02T07:45:30;12.60;95.70
41756;DHT22;27435;48.480;9.258;2022-11-02T07:47:56;12.80;95.20
41756;DHT22;27435;48.480;9.258;2022-11-02T07:50:23;12.90;95.50
41756;DHT22;27435;48.480;9.258;2022-11-02T07:52:52;13.00;94.30
41756;DHT22;27435;48.480;9.258;2022-11-02T07:55:20;13.20;94.20
41756;DHT22;27435;48.480;9.258;2022-11-02T08:00:23;13.10;93.20
41756;DHT22;27435;48.480;9.258;2022-11-02T08:02:56;13.20;92.30
41756;DHT22;27435;48.480;9.258;2022-11-02T08:05:23;13.10;92.80
41756;DHT22;27435;48.480;9.258;2022-11-02T08:08:12;13.10;92.70
41756;DHT22;27435;48.480;9.258;2022-11-02T08:10:38;13.10;92.80
41756;DHT22;27435;48.480;9.258;2022-11-02T08:13:04;13.10;92.60
41756;DHT22;27435;48.480;9.258;2022-11-02T08:15:30;13.10;92.50
41756;DHT22;27435;48.480;9.258;2022-11-02T08:20:26;13.30;90.80
41756;DHT22;27435;48.480;9.258;2022-11-02T08:22:51;12.90;92.70
41756;DHT22;27435;48.480;9.258;2022-11-02T08:25:17;12.90;92.80
41756;DHT22;27435;48.480;9.258;2022-11-02T08:27:42;12.90;93.90
41756;DHT22;27435;48.480;9.258;2022-11-02T08:30:09;13.10;92.20
41756;DHT22;27435;48.480;9.258;2022-11-02T08:32:35;12.90;93.60
41756;DHT22;27435;48.480;9.258;2022-11-02T08:35:00;12.90;93.30
41756;DHT22;27435;48.480;9.258;2022-11-02T08:37:26;12.80;93.80
41756;DHT22;27435;48.480;9.258;2022-11-02T08:39:51;13.00;93.60
41756;DHT22;27435;48.480;9.258;2022-11-02T08:42:17;12.90;93.70
41756;DHT22;27435;48.480;9.258;2022-11-02T08:44:42;13.10;93.40
41756;DHT22;27435;48.480;9.258;2022-11-02T08:47:08;13.10;93.50
41756;DHT22;27435;48.480;9.258;2022-11-02T08:49:34;13.10;93.30
41756;DHT22;27435;48.480;9.258;2022-11-02T08:51:59;13.10;93.40
41756;DHT22;27435;48.480;9.258;2022-11-02T08:54:25;13.00;93.70
41756;DHT22;27435;48.480;9.258;2022-11-02T08:56:50;13.10;93.40
41756;DHT22;27435;48.480;9.258;2022-11-02T08:59:16;13.00;93.90
41756;DHT22;27435;48.480;9.258;2022-11-02T09:01:41;13.10;93.80
41756;DHT22;27435;48.480;9.258;2022-11-02T09:04:07;13.10;94.00
41756;DHT22;27435;48.480;9.258;2022-11-02T09:06:33;13.10;93.70
41756;DHT22;27435;48.480;9.258;2022-11-02T09:08:59;13.40;93.30
41756;DHT22;27435;48.480;9.258;2022-11-02T09:11:24;13.30;93.70
41756;DHT22;27435;48.480;9.258;2022-11-02T09:13:50;13.20;93.70
41756;DHT22;27435;48.480;9.258;2022-11-02T09:16:16;13.10;94.00
41756;DHT22;27435;48.480;9.258;2022-11-02T09:18:41;13.30;93.30
41756;DHT22;27435;48.480;9.258;2022-11-02T09:21:07;13.20;93.80
41756;DHT22;27435;48.480;9.258;2022-11-02T09:23:33;13.50;93.20
41756;DHT22;27435;48.480;9.258;2022-11-02T09:25:59;13.70;92.90
41756;DHT22;27435;48.480;9.258;2022-11-02T09:28:25;13.50;92.60
41756;DHT22;27435;48.480;9.258;2022-11-02T09:30:51;13.40;93.70
41756;DHT22;27435;48.480;9.258;2022-11-02T09:33:17;13.50;93.50
41756;DHT22;27435;48.480;9.258;2022-11-02T09:35:45;13.50;93.40
41756;DHT22;27435;48.480;9.258;2022-11-02T09:38:11;13.90;91.90
41756;DHT22;27435;48.480;9.258;2022-11-02T09:45:59;14.00;91.00
41756;DHT22;27435;48.480;9.258;2022-11-02T09:48:39;13.90;91.30
41756;DHT22;27435;48.480;9.258;2022-11-02T09:51:16;13.90;91.20
41756;DHT22;27435;48.480;9.258;2022-11-02T09:53:58;14.00;91.30
41756;DHT22;27435;48.480;9.258;2022-11-02T09:56:26;13.80;91.20
41756;DHT22;27435;48.480;9.258;2022-11-02T09:59:15;14.00;91.50
41756;DHT22;27435;48.480;9.258;2022-11-02T10:01:43;13.80;91.30
41756;DHT22;27435;48.480;9.258;2022-11-02T10:09:58;13.90;91.50
41756;DHT22;27435;48.480;9.258;2022-11-02T10:12:36;13.90;91.20
41756;DHT22;27435;48.480;9.258;2022-11-02T10:15:22;13.90;91.30
41756;DHT22;27435;48.480;9.258;2022-11-02T10:17:54;13.80;92.00
41756;DHT22;27435;48.480;9.258;2022-11-02T10:20:27;13.90;92.00
41756;DHT22;27435;48.480;9.258;2022-11-02T10:22:59;14.00;91.70
41756;DHT22;27435;48.480;9.258;2022-11-02T10:25:27;14.10;91.90
41756;DHT22;27435;48.480;9.258;2022-11-02T10:28:00;14.30;91.20
41756;DHT22;27435;48.480;9.258;2022-11-02T10:30:29;14.20;91.10
41756;DHT22;27435;48.480;9.258;2022-11-02T10:32:56;13.90;90.90
41756;DHT22;27435;48.480;9.258;2022-11-02T10:38:26;14.20;91.20
41756;DHT22;27435;48.480;9.258;2022-11-02T10:52:15;14.10;90.80
41756;DHT22;27435;48.480;9.258;2022-11-02T10:54:42;14.20;90.40
41756;DHT22;27435;48.480;9.258;2022-11-02T10:57:12;14.30;90.00
41756;DHT22;27435;48.480;9.258;2022-11-02T10:59:38;14.20;90.80
41756;DHT22;27435;48.480;9.258;2022-11-02T11:02:12;14.30;90.40
41756;DHT22;27435;48.480;9.258;2022-11-02T11:04:39;14.40;90.20
41756;DHT22;27435;48.480;9.258;2022-11-02T11:07:14;14.40;89.80
41756;DHT22;27435;48.480;9.258;2022-11-02T11:12:16;14.60;89.30
41756;DHT22;27435;48.480;9.258;2022-11-02T11:14:55;14.50;89.10
41756;DHT22;27435;48.480;9.258;2022-11-02T11:17:27;14.40;89.50
41756;DHT22;27435;48.480;9.258;2022-11-02T11:19:55;14.40;89.30
41756;DHT22;27435;48.480;9.258;2022-11-02T11:22:36;14.30;90.00
41756;DHT22;27435;48.480;9.258;2022-11-02T11:27:47;14.30;90.30
41756;DHT22;27435;48.480;9.258;2022-11-02T11:30:28;14.40;89.70
41756;DHT22;27435;48.480;9.258;2022-11-02T11:32:55;14.40;88.70
41756;DHT22;27435;48.480;9.258;2022-11-02T11:35:22;14.60;89.30
41756;DHT22;27435;48.480;9.258;2022-11-02T11:37:53;14.50;89.40
41756;DHT22;27435;48.480;9.258;2022-11-02T11:40:20;14.50;89.50
41756;DHT22;27435;48.480;9.258;2022-11-02T11:42:52;14.70;88.90
41756;DHT22;27435;48.480;9.258;2022-11-02T11:45:26;14.50;89.10
41756;DHT22;27435;48.480;9.258;2022-11-02T11:47:54;14.50;87.60
41756;DHT22;27435;48.480;9.258;2022-11-02T11:50:21;14.50;86.60
41756;DHT22;27435;48.480;9.258;2022-11-02T11:53:13;14.40;86.60
41756;DHT22;27435;48.480;9.258;2022-11-02T11:55:49;14.30;86.60
41756;DHT22;27435;48.480;9.258;2022-11-02T11:58:29;14.20;86.80
41756;DHT22;27435;48.480;9.258;2022-11-02T12:01:06;14.10;87.20
41756;DHT22;27435;48.480;9.258;2022-11-02T12:03:32;14.20;86.30
41756;DHT22;27435;48.480;9.258;2022-11-02T12:06:24;14.10;86.80
41756;DHT22;27435;48.480;9.258;2022-11-02T12:09:11;13.90;88.10
41756;DHT22;27435;48.480;9.258;2022-11-02T12:12:07;13.80;88.40
41756;DHT22;27435;48.480;9.258;2022-11-02T12:15:21;13.60;88.60
41756;DHT22;27435;48.480;9.258;2022-11-02T12:18:22;13.50;89.20
41756;DHT22;27435;48.480;9.258;2022-11-02T12:20:58;13.50;89.40
41756;DHT22;27435;48.480;9.258;2022-11-02T12:28:47;13.80;88.90
41756;DHT22;27435;48.480;9.258;2022-11-02T12:39:08;14.60;86.00
41756;DHT22;27435;48.480;9.258;2022-11-02T12:44:46;15.10;84.80
41756;DHT22;27435;48.480;9.258;2022-11-02T12:55:48;15.70;81.40
41756;DHT22;27435;48.480;9.258;2022-11-02T12:58:25;15.70;79.10
41756;DHT22;27435;48.480;9.258;2022-11-02T13:01:04;15.70;79.60
41756;DHT22;27435;48.480;9.258;2022-11-02T13:03:34;15.60;81.20
41756;DHT22;27435;48.480;9.258;2022-11-02T13:06:05;15.60;78.20
41756;DHT22;27435;48.480;9.258;2022-11-02T13:08:49;15.30;78.50
41756;DHT22;27435;48.480;9.258;2022-11-02T13:11:43;15.30;78.70
41756;DHT22;27435;48.480;9.258;2022-11-02T13:14:14;15.50;78.10
41756;DHT22;27435;48.480;9.258;2022-11-02T13:16:54;15.80;77.80
41756;DHT22;27435;48.480;9.258;2022-11-02T13:19:37;16.00;77.30
41756;DHT22;27435;48.480;9.258;2022-11-02T13:22:04;16.20;76.30
41756;DHT22;27435;48.480;9.258;2022-11-02T13:24:38;16.00;76.00
41756;DHT22;27435;48.480;9.258;2022-11-02T13:27:15;16.20;76.60
41756;DHT22;27435;48.480;9.258;2022-11-02T13:29:47;16.50;76.30
41756;DHT22;27435;48.480;9.258;2022-11-02T13:32:30;16.70;74.90
41756;DHT22;27435;48.480;9.258;2022-11-02T13:34:58;16.30;75.80
41756;DHT22;27435;48.480;9.258;2022-11-02T13:37:33;16.30;75.20
41756;DHT22;27435;48.480;9.258;2022-11-02T13:40:04;16.40;75.00
41756;DHT22;27435;48.480;9.258;2022-11-02T13:50:57;17.20;72.40
41756;DHT22;27435;48.480;9.258;2022-11-02T13:53:32;17.20;71.30
41756;DHT22;27435;48.480;9.258;2022-11-02T13:56:04;17.60;71.80
41756;DHT22;27435;48.480;9.258;2022-11-02T13:58:40;17.60;70.80
41756;DHT22;27435;48.480;9.258;2022-11-02T14:01:09;17.20;71.40
41756;DHT22;27435;48.480;9.258;2022-11-02T14:03:48;17.00;71.70
41756;DHT22;27435;48.480;9.258;2022-11-02T14:06:16;17.00;71.90
41756;DHT22;27435;48.480;9.258;2022-11-02T14:19:23;17.40;70.50
41756;DHT22;27435;48.480;9.258;2022-11-02T14:35:32;16.50;74.00
41756;DHT22;27435;48.480;9.258;2022-11-02T14:38:25;17.00;72.50
41756;DHT22;27435;48.480;9.258;2022-11-02T14:46:59;17.00;71.80
41756;DHT22;27435;48.480;9.258;2022-11-02T14:49:31;16.80;72.10
41756;DHT22;27435;48.480;9.258;2022-11-02T14:52:17;16.60;72.00
41756;DHT22;27435;48.480;9.258;2022-11-02T14:54:52;16.30;73.30
41756;DHT22;27435;48.480;9.258;2022-11-02T14:57:28;15.80;74.80
41756;DHT22;27435;48.480;9.258;2022-11-02T14:59:56;15.30;75.60
41756;DHT22;27435;48.480;9.258;2022-11-02T15:02:36;15.10;76.50
41756;DHT22;27435;48.480;9.258;2022-11-02T15:05:05;15.00;77.40
41756;DHT22;27435;48.480;9.258;2022-11-02T15:08:07;15.30;76.50
41756;DHT22;27435;48.480;9.258;2022-11-02T15:10:40;15.10;77.00
41756;DHT22;27435;48.480;9.258;2022-11-02T15:13:33;15.00;77.50
41756;DHT22;27435;48.480;9.258;2022-11-02T15:18:35;15.20;77.50
41756;DHT22;27435;48.480;9.258;2022-11-02T15:26:51;15.60;75.80
41756;DHT22;27435;48.480;9.258;2022-11-02T15:29:30;15.50;75.90
41756;DHT22;27435;48.480;9.258;2022-11-02T15:31:58;15.40;79.50
41756;DHT22;27435;48.480;9.258;2022-11-02T15:34:32;15.30;81.70
41756;DHT22;27435;48.480;9.258;2022-11-02T15:36:59;15.00;83.00
41756;DHT22;27435;48.480;9.258;2022-11-02T15:39:26;14.80;83.10
41756;DHT22;27435;48.480;9.258;2022-11-02T15:42:00;14.70;83.10
41756;DHT22;27435;48.480;9.258;2022-11-02T15:52:47;14.10;86.40
41756;DHT22;27435;48.480;9.258;2022-11-02T15:55:19;13.90;87.60
41756;DHT22;27435;48.480;9.258;2022-11-02T16:00:21;13.30;89.60
41756;DHT22;27435;48.480;9.258;2022-11-02T16:02:58;13.10;90.40
41756;DHT22;27435;48.480;9.258;2022-11-02T16:05:28;12.80;90.90
41756;DHT22;27435;48.480;9.258;2022-11-02T16:07:56;12.50;92.10
41756;DHT22;27435;48.480;9.258;2022-11-02T16:10:32;12.10;93.50
41756;DHT22;27435;48.480;9.258;2022-11-02T16:13:17;11.90;94.40
41756;DHT22;27435;48.480;9.258;2022-11-02T16:15:45;11.60;95.90
41756;DHT22;27435;48.480;9.258;2022-11-02T16:18:27;11.40;96.70
41756;DHT22;27435;48.480;9.258;2022-11-02T16:20:58;11.20;98.10
41756;DHT22;27435;48.480;9.258;2022-11-02T16:23:28;11.00;98.40
41756;DHT22;27435;48.480;9.258;2022-11-02T16:25:55;11.00;98.70
41756;DHT22;27435;48.480;9.258;2022-11-02T16:28:29;10.80;98.70
41756;DHT22;27435;48.480;9.258;2022-11-02T16:31:13;10.80;98.90
41756;DHT22;27435;48.480;9.258;2022-11-02T16:36:11;10.60;99.00
41756;DHT22;27435;48.480;9.258;2022-11-02T16:38:45;10.60;99.00
41756;DHT22;27435;48.480;9.258;2022-11-02T16:41:13;10.60;99.00
41756;DHT22;27435;48.480;9.258;2022-11-02T16:43:42;10.50;99.00
41756;DHT22;27435;48.480;9.258;2022-11-02T16:46:08;10.40;99.00
41756;DHT22;27435;48.480;9.258;2022-11-02T16:48:34;10.30;99.00
41756;DHT22;27435;48.480;9.258;2022-11-02T16:53:38;9.80;99.00
41756;DHT22;27435;48.480;9.258;2022-11-02T16:56:25;9.70;99.00
41756;DHT22;27435;48.480;9.258;2022-11-02T16:59:00;9.60;99.00
41756;DHT22;27435;48.480;9.258;2022-11-02T17:01:35;9.60;99.00
41756;DHT22;27435;48.480;9.258;2022-11-02T17:06:47;9.80;99.00
41756;DHT22;27435;48.480;9.258;2022-11-02T17:09:25;9.60;99.00
41756;DHT22;27435;48.480;9.258;2022-11-02T17:11:54;9.40;99.00
41756;DHT22;27435;48.480;9.258;2022-11-02T17:14:21;9.30;99.00
41756;DHT22;27435;48.480;9.258;2022-11-02T17:17:06;9.20;99.00
41756;DHT22;27435;48.480;9.258;2022-11-02T17:19:42;9.10;99.00
41756;DHT22;27435;48.480;9.258;2022-11-02T17:22:28;9.00;99.00
41756;DHT22;27435;48.480;9.258;2022-11-02T17:27:43;9.00;99.00
41756;DHT22;27435;48.480;9.258;2022-11-02T17:35:46;8.70;99.00
41756;DHT22;27435;48.480;9.258;2022-11-02T17:38:12;8.60;99.00
41756;DHT22;27435;48.480;9.258;2022-11-02T17:40:38;8.60;99.00
41756;DHT22;27435;48.480;9.258;2022-11-02T17:43:04;8.70;99.00
41756;DHT22;27435;48.480;9.258;2022-11-02T17:45:31;8.90;99.00
41756;DHT22;27435;48.480;9.258;2022-11-02T17:47:59;8.80;99.00
41756;DHT22;27435;48.480;9.258;2022-11-02T17:50:27;8.60;99.00
41756;DHT22;27435;48.480;9.258;2022-11-02T17:52:54;8.60;99.00
41756;DHT22;27435;48.480;9.258;2022-11-02T17:55:25;8.60;99.00
41756;DHT22;27435;48.480;9.258;2022-11-02T17:57:52;8.70;99.00
41756;DHT22;27435;48.480;9.258;2022-11-02T18:00:21;8.80;99.00
41756;DHT22;27435;48.480;9.258;2022-11-02T18:02:50;8.80;99.00
41756;DHT22;27435;48.480;9.258;2022-11-02T18:05:27;8.80;99.00
41756;DHT22;27435;48.480;9.258;2022-11-02T18:07:54;8.80;99.00
41756;DHT22;27435;48.480;9.258;2022-11-02T18:10:31;8.80;99.00
41756;DHT22;27435;48.480;9.258;2022-11-02T18:12:57;8.70;99.00
41756;DHT22;27435;48.480;9.258;2022-11-02T18:15:28;8.50;99.00
41756;DHT22;27435;48.480;9.258;2022-11-02T18:17:54;8.40;99.00
41756;DHT22;27435;48.480;9.258;2022-11-02T18:20:22;8.50;99.00
41756;DHT22;27435;48.480;9.258;2022-11-02T18:22:48;8.50;99.00
41756;DHT22;27435;48.480;9.258;2022-11-02T18:25:16;8.40;99.00
41756;DHT22;27435;48.480;9.258;2022-11-02T18:27:42;8.60;99.00
41756;DHT22;27435;48.480;9.258;2022-11-02T18:30:10;8.60;99.00